Time;durP1;ratioP1;P1;durP2;ratioP2;P2;SDS_P1;SDS_P2;PMS_P1;PMS_P2;Temp;Humidity;BMP_temperature;BMP_pressure;BME280_temperature;BME280_humidity;BME280_pressure;Samples;Min_cycle;Max_cycle;Signal;HPM_P1;HPM_P2
2023/06/27 00:02:03;;;;;;;;;;;;;;;23.12;77.68;96859.39;588397;241;65069;-62
2023/06/27 00:04:30;;;;;;;;;;;;;;;23.11;76.22;96847.09;588454;241;68733;-62
2023/06/27 00:06:58;;;;;;;;;;;;;;;23.12;75.81;96845.20;588362;241;68708;-62
2023/06/27 00:09:25;;;;;;;;;;;;;;;23.11;75.91;96841.73;588375;241;65064;-62
2023/06/27 00:11:53;;;;;;;;;;;;;;;23.12;75.98;96840.63;588415;241;68719;-62
2023/06/27 00:14:20;;;;;;;;;;;;;;;23.12;75.50;96842.52;588398;241;68726;-63
2023/06/27 00:16:49;;;;;;;;;;;;;;;23.12;75.43;96840.63;588437;241;65064;-63
2023/06/27 00:19:16;;;;;;;;;;;;;;;23.11;75.12;96831.00;588486;241;66464;-63
2023/06/27 00:21:44;;;;;;;;;;;;;;;23.13;75.13;96833.38;588395;241;66546;-63
2023/06/27 00:24:11;;;;;;;;;;;;;;;23.12;75.32;96832.59;588375;241;62955;-63
2023/06/27 00:26:38;;;;;;;;;;;;;;;23.12;75.53;96834.48;588346;241;66903;-63
2023/06/27 00:29:06;;;;;;;;;;;;;;;23.12;75.26;96832.59;588320;241;69456;-63
2023/06/27 00:31:34;;;;;;;;;;;;;;;23.11;75.10;96831.00;588417;241;65812;-63
2023/06/27 00:34:02;;;;;;;;;;;;;;;23.11;75.29;96828.33;588358;241;68714;-63
2023/06/27 00:36:29;;;;;;;;;;;;;;;23.13;76.23;96831.48;587252;241;68562;-63
2023/06/27 00:38:57;;;;;;;;;;;;;;;23.11;76.51;96828.33;586696;242;62770;-63
2023/06/27 00:41:24;;;;;;;;;;;;;;;23.10;75.42;96832.07;586729;241;68947;-63
2023/06/27 00:43:52;;;;;;;;;;;;;;;23.10;75.12;96831.28;586693;241;68603;-63
2023/06/27 00:46:21;;;;;;;;;;;;;;;23.11;75.17;96830.19;586709;241;65153;-63
2023/06/27 00:48:49;;;;;;;;;;;;;;;23.11;76.00;96825.64;585950;241;68689;-63
2023/06/27 00:51:17;;;;;;;;;;;;;;;23.11;76.51;96830.19;586727;241;66622;-63
2023/06/27 00:53:44;;;;;;;;;;;;;;;23.11;76.20;96832.86;586728;241;62787;-63
2023/06/27 00:56:12;;;;;;;;;;;;;;;23.11;76.13;96828.33;586679;242;66361;-63
2023/06/27 00:58:39;;;;;;;;;;;;;;;23.10;76.08;96829.39;586718;241;68364;-62
2023/06/27 01:01:07;;;;;;;;;;;;;;;23.11;75.55;96830.19;586646;241;64848;-62
2023/06/27 01:03:36;;;;;;;;;;;;;;;23.09;75.20;96827.81;587043;241;46117;-62
2023/06/27 01:06:05;;;;;;;;;;;;;;;23.10;75.18;96834.75;587723;241;68422;-62
2023/06/27 01:08:34;;;;;;;;;;;;;;;23.10;76.42;96829.39;587766;241;62928;-62
2023/06/27 01:11:06;;;;;;;;;;;;;;;23.10;76.67;96834.75;587588;241;68683;-62
2023/06/27 01:13:35;;;;;;;;;;;;;;;23.10;76.40;96837.44;587810;241;67303;-62
2023/06/27 01:16:05;;;;;;;;;;;;;;;23.10;75.57;96839.33;587827;241;65692;-62
2023/06/27 01:18:34;;;;;;;;;;;;;;;23.10;75.55;96837.44;587946;241;68515;-62
2023/06/27 01:21:02;;;;;;;;;;;;;;;23.10;75.25;96836.64;587646;241;68386;-62
2023/06/27 01:23:53;;;;;;;;;;;;;;;23.10;75.05;96834.75;587942;241;63777;-62
2023/06/27 01:26:18;;;;;;;;;;;;;;;23.09;75.31;96835.84;587425;241;68491;-61
2023/06/27 01:28:46;;;;;;;;;;;;;;;23.10;76.35;96840.11;587789;241;66364;-61
2023/06/27 01:31:18;;;;;;;;;;;;;;;23.09;76.28;96838.53;587980;241;65066;-61
2023/06/27 01:33:47;;;;;;;;;;;;;;;23.09;75.97;96835.06;574960;241;69910;-60
2023/06/27 01:36:18;;;;;;;;;;;;;;;23.09;76.27;96835.06;583375;241;68844;-61
2023/06/27 01:38:48;;;;;;;;;;;;;;;23.10;76.06;96831.28;587509;241;62536;-61
2023/06/27 01:41:17;;;;;;;;;;;;;;;23.09;76.07;96830.48;587703;241;67720;-61
2023/06/27 01:43:45;;;;;;;;;;;;;;;23.08;76.02;96831.59;587787;241;66266;-61
2023/06/27 01:46:14;;;;;;;;;;;;;;;23.09;75.81;96833.17;587875;241;62438;-61
2023/06/27 01:48:42;;;;;;;;;;;;;;;23.09;75.71;96829.70;587778;241;68663;-60
2023/06/27 01:51:09;;;;;;;;;;;;;;;23.08;75.43;96826.22;587822;241;66620;-61
2023/06/27 01:53:37;;;;;;;;;;;;;;;23.09;76.26;96827.02;587705;241;66120;-61
2023/06/27 01:56:04;;;;;;;;;;;;;;;23.09;76.19;96827.02;587734;241;69665;-60
2023/06/27 01:58:32;;;;;;;;;;;;;;;23.08;75.65;96820.05;587814;241;68734;-61
2023/06/27 02:01:00;;;;;;;;;;;;;;;23.08;75.15;96823.55;587612;241;62530;-61
2023/06/27 02:03:27;;;;;;;;;;;;;;;23.08;75.15;96815.50;587228;241;66401;-61
2023/06/27 02:05:56;;;;;;;;;;;;;;;23.09;76.33;96821.66;588540;241;66196;-61
2023/06/27 02:08:24;;;;;;;;;;;;;;;23.08;76.28;96828.91;588448;240;65064;-63
2023/06/27 02:10:51;;;;;;;;;;;;;;;23.09;76.17;96824.34;588180;241;66447;-63
2023/06/27 02:13:19;;;;;;;;;;;;;;;23.07;75.78;96821.93;588380;241;68526;-63
2023/06/27 02:15:46;;;;;;;;;;;;;;;23.08;76.11;96820.05;588393;241;62947;-63
2023/06/27 02:18:15;;;;;;;;;;;;;;;23.08;75.41;96823.55;588322;241;69096;-63
2023/06/27 02:20:42;;;;;;;;;;;;;;;23.08;75.84;96820.05;588312;241;68070;-61
2023/06/27 02:23:10;;;;;;;;;;;;;;;23.07;75.27;96816.57;588367;241;62754;-61
2023/06/27 02:25:37;;;;;;;;;;;;;;;23.08;75.63;96815.50;588249;241;68692;-61
2023/06/27 02:28:06;;;;;;;;;;;;;;;23.07;75.58;96816.57;588360;241;69734;-60
2023/06/27 02:30:34;;;;;;;;;;;;;;;23.07;75.36;96819.25;588393;240;65111;-61
2023/06/27 02:33:01;;;;;;;;;;;;;;;23.08;75.21;96826.22;588034;241;69676;-61
2023/06/27 02:35:31;;;;;;;;;;;;;;;23.07;75.76;96821.93;588349;241;47124;-61
2023/06/27 02:37:58;;;;;;;;;;;;;;;23.07;75.95;96821.93;587267;241;64969;-61
2023/06/27 02:40:28;;;;;;;;;;;;;;;23.07;76.09;96827.30;587366;240;66522;-61
2023/06/27 02:42:55;;;;;;;;;;;;;;;23.07;75.84;96829.97;588389;241;68507;-62
2023/06/27 02:45:23;;;;;;;;;;;;;;;23.07;75.87;96829.18;588371;241;64854;-62
2023/06/27 02:47:51;;;;;;;;;;;;;;;23.07;76.09;96831.86;588389;240;66333;-62
2023/06/27 02:50:18;;;;;;;;;;;;;;;23.06;75.76;96833.75;588386;241;68506;-61
2023/06/27 02:52:46;;;;;;;;;;;;;;;23.07;75.90;96834.55;588239;241;63025;-62
2023/06/27 02:55:14;;;;;;;;;;;;;;;23.06;75.94;96828.39;588363;240;69190;-62
2023/06/27 02:57:42;;;;;;;;;;;;;;;23.06;76.10;96828.39;588208;241;68691;-62
2023/06/27 03:00:10;;;;;;;;;;;;;;;23.06;75.60;96833.75;588399;240;62784;-62
2023/06/27 03:02:38;;;;;;;;;;;;;;;23.06;75.49;96831.07;588281;241;68928;-62
2023/06/27 03:05:05;;;;;;;;;;;;;;;23.06;76.02;96835.64;588408;241;66221;-62
2023/06/27 03:07:33;;;;;;;;;;;;;;;23.06;76.02;96839.11;588434;241;65231;-62
2023/06/27 03:10:01;;;;;;;;;;;;;;;23.05;75.41;96840.17;588363;241;66180;-62
2023/06/27 03:12:29;;;;;;;;;;;;;;;23.06;75.85;96838.32;588421;241;69293;-62
2023/06/27 03:14:58;;;;;;;;;;;;;;;23.06;75.67;96835.64;588329;241;66143;-61
2023/06/27 03:17:28;;;;;;;;;;;;;;;23.06;75.72;96827.59;588340;241;66193;-62
2023/06/27 03:19:56;;;;;;;;;;;;;;;23.05;75.36;96837.50;588354;241;66748;-62
2023/06/27 03:22:24;;;;;;;;;;;;;;;23.04;75.82;96831.34;588444;241;64903;-62
2023/06/27 03:24:51;;;;;;;;;;;;;;;23.04;75.99;96831.34;588343;240;68881;-62
2023/06/27 03:27:23;;;;;;;;;;;;;;;23.05;75.93;96829.45;588412;241;66457;-62
2023/06/27 03:29:51;;;;;;;;;;;;;;;23.04;75.92;96831.34;588373;241;62944;-62
2023/06/27 03:32:19;;;;;;;;;;;;;;;23.04;75.48;96831.34;588488;241;69453;-61
2023/06/27 03:34:48;;;;;;;;;;;;;;;23.04;75.57;96825.98;588408;241;67137;-62
2023/06/27 03:37:15;;;;;;;;;;;;;;;23.04;76.03;96828.66;588359;241;62696;-62
2023/06/27 03:39:43;;;;;;;;;;;;;;;23.04;75.89;96825.19;588376;240;66339;-62
2023/06/27 03:42:10;;;;;;;;;;;;;;;23.04;75.60;96828.66;588399;241;66790;-62
2023/06/27 03:44:38;;;;;;;;;;;;;;;23.04;75.92;96828.66;588448;241;65855;-62
2023/06/27 03:47:06;;;;;;;;;;;;;;;23.05;76.51;96832.13;588321;241;68667;-62
2023/06/27 03:49:33;;;;;;;;;;;;;;;23.04;76.79;96830.55;588459;241;66617;-62
2023/06/27 03:52:01;;;;;;;;;;;;;;;23.04;76.65;96831.34;588185;241;63057;-62
2023/06/27 03:54:30;;;;;;;;;;;;;;;23.05;77.47;96832.13;588364;241;69492;-62
2023/06/27 03:56:58;;;;;;;;;;;;;;;23.04;78.05;96830.55;588461;241;66662;-63
2023/06/27 03:59:25;;;;;;;;;;;;;;;23.03;77.89;96837.01;588431;240;62737;-63
2023/06/27 04:01:53;;;;;;;;;;;;;;;23.03;77.90;96837.80;588395;241;68902;-63
2023/06/27 04:04:21;;;;;;;;;;;;;;;23.02;77.42;96844.23;588342;240;69710;-63
2023/06/27 04:06:48;;;;;;;;;;;;;;;23.03;77.61;96842.38;588320;241;65128;-63
2023/06/27 04:09:16;;;;;;;;;;;;;;;23.03;77.28;96840.48;588247;241;66603;-63
2023/06/27 04:11:43;;;;;;;;;;;;;;;23.03;76.87;96855.77;588327;241;68918;-63
2023/06/27 04:14:11;;;;;;;;;;;;;;;23.03;77.03;96853.09;588327;241;63045;-63
2023/06/27 04:16:39;;;;;;;;;;;;;;;23.04;77.86;96854.67;588380;241;68675;-63
2023/06/27 04:19:06;;;;;;;;;;;;;;;23.02;77.85;96844.23;588355;241;68810;-63
2023/06/27 04:21:34;;;;;;;;;;;;;;;23.03;78.58;96853.09;588327;241;65041;-63
2023/06/27 04:24:02;;;;;;;;;;;;;;;23.02;77.99;96846.12;588321;241;69252;-63
2023/06/27 04:26:30;;;;;;;;;;;;;;;23.02;77.64;96856.84;588372;240;68795;-63
2023/06/27 04:28:58;;;;;;;;;;;;;;;23.02;77.93;96846.91;588276;241;62949;-63
2023/06/27 04:31:25;;;;;;;;;;;;;;;23.01;77.85;96844.53;588278;241;68817;-63
2023/06/27 04:33:57;;;;;;;;;;;;;;;23.01;77.24;96853.36;588402;241;66558;-63
2023/06/27 04:36:24;;;;;;;;;;;;;;;23.02;77.73;96849.59;588184;241;65078;-63
2023/06/27 04:38:51;;;;;;;;;;;;;;;23.01;77.83;96847.21;588139;241;68798;-63
2023/06/27 04:41:19;;;;;;;;;;;;;;;23.02;77.92;96848.80;588353;241;68771;-63
2023/06/27 04:43:46;;;;;;;;;;;;;;;23.01;77.30;96836.49;588355;241;66208;-63
2023/06/27 04:46:14;;;;;;;;;;;;;;;23.00;76.41;96840.27;588333;241;68862;-63
2023/06/27 04:48:42;;;;;;;;;;;;;;;23.00;76.13;96841.06;588294;241;68431;-63
2023/06/27 04:51:09;;;;;;;;;;;;;;;23.00;75.71;96843.74;588336;241;62948;-63
2023/06/27 04:53:37;;;;;;;;;;;;;;;23.02;76.96;96848.80;588430;241;67655;-63
2023/06/27 04:56:04;;;;;;;;;;;;;;;23.01;77.12;96847.21;588247;240;68857;-63
2023/06/27 04:58:35;;;;;;;;;;;;;;;23.00;77.02;96848.31;588355;241;45306;-63
2023/06/27 05:01:02;;;;;;;;;;;;;;;23.02;77.29;96851.48;588314;241;68827;-63
2023/06/27 05:03:30;;;;;;;;;;;;;;;23.00;77.47;96849.10;587731;240;68774;-63
2023/06/27 05:05:58;;;;;;;;;;;;;;;23.01;77.82;96839.17;587254;241;63021;-63
2023/06/27 05:08:25;;;;;;;;;;;;;;;23.01;77.30;96848.00;587414;240;68850;-63
2023/06/27 05:10:53;;;;;;;;;;;;;;;23.00;78.01;96846.42;587266;241;66326;-63
2023/06/27 05:13:20;;;;;;;;;;;;;;;23.01;78.76;96841.86;587360;241;65056;-63
2023/06/27 05:15:48;;;;;;;;;;;;;;;22.99;78.40;96844.80;587174;241;65843;-63
2023/06/27 05:18:17;;;;;;;;;;;;;;;23.00;78.57;96845.63;587212;241;66255;-63
2023/06/27 05:20:45;;;;;;;;;;;;;;;23.01;78.41;96844.53;587354;241;62768;-62
2023/06/27 05:23:12;;;;;;;;;;;;;;;23.00;78.33;96851.78;587218;241;68846;-62
2023/06/27 05:25:40;;;;;;;;;;;;;;;23.00;78.14;96845.63;587285;241;68528;-62
2023/06/27 05:28:08;;;;;;;;;;;;;;;22.99;77.71;96852.84;587266;241;65277;-62
2023/06/27 05:30:36;;;;;;;;;;;;;;;23.00;77.65;96856.34;587250;241;68746;-62
2023/06/27 05:33:03;;;;;;;;;;;;;;;22.99;77.57;96858.20;587233;241;68541;-62
2023/06/27 05:35:31;;;;;;;;;;;;;;;22.99;77.49;96855.53;587244;241;62923;-62
2023/06/27 05:37:59;;;;;;;;;;;;;;;22.99;77.77;96849.38;587219;241;68648;-62
2023/06/27 05:40:27;;;;;;;;;;;;;;;22.98;78.04;96853.95;587202;241;66640;-62
2023/06/27 05:42:54;;;;;;;;;;;;;;;22.99;78.14;96852.05;587105;241;65133;-62
2023/06/27 05:45:23;;;;;;;;;;;;;;;22.98;77.78;96855.83;587125;241;68839;-62
2023/06/27 05:47:50;;;;;;;;;;;;;;;22.98;77.94;96853.95;587176;239;68779;-62
2023/06/27 05:50:17;;;;;;;;;;;;;;;22.99;77.93;96854.73;587238;241;62902;-62
2023/06/27 05:52:45;;;;;;;;;;;;;;;22.99;77.79;96857.42;587311;241;68801;-62
2023/06/27 05:55:13;;;;;;;;;;;;;;;22.99;77.56;96850.17;587219;241;68995;-62
2023/06/27 05:57:40;;;;;;;;;;;;;;;22.99;77.87;96850.17;586544;241;64870;-62
2023/06/27 06:00:10;;;;;;;;;;;;;;;23.00;78.28;96850.99;587198;241;66783;-63
2023/06/27 06:02:40;;;;;;;;;;;;;;;22.97;77.02;96844.32;587524;241;50598;-62
2023/06/27 06:05:08;;;;;;;;;;;;;;;22.98;77.74;96842.43;587566;241;65240;-62
2023/06/27 06:07:36;;;;;;;;;;;;;;;22.97;78.35;96847.00;587700;241;66509;-62
2023/06/27 06:10:03;;;;;;;;;;;;;;;22.97;78.61;96848.86;587911;241;66788;-63
2023/06/27 06:12:31;;;;;;;;;;;;;;;22.95;76.32;96845.66;579123;241;63070;-63
2023/06/27 06:14:58;;;;;;;;;;;;;;;22.95;76.00;96843.77;583097;240;68797;-62
2023/06/27 06:17:26;;;;;;;;;;;;;;;22.97;77.52;96843.50;586709;241;68640;-62
2023/06/27 06:19:54;;;;;;;;;;;;;;;22.97;78.68;96847.00;587242;241;63035;-61
2023/06/27 06:22:21;;;;;;;;;;;;;;;22.97;78.41;96840.82;584987;241;68712;-62
2023/06/27 06:24:49;;;;;;;;;;;;;;;22.96;78.01;96845.39;586102;241;68540;-62
2023/06/27 06:27:15;;;;;;;;;;;;;;;;;;586458;241;65063;-61
2023/06/27 06:29:42;;;;;;;;;;;;;;;22.97;78.12;96841.64;587417;241;67427;-62
2023/06/27 06:32:10;;;;;;;;;;;;;;;22.98;78.69;96837.08;587337;241;66727;-61
2023/06/27 06:34:39;;;;;;;;;;;;;;;22.97;78.19;96838.96;583621;241;64015;-63
2023/06/27 06:37:09;;;;;;;;;;;;;;;22.97;77.82;96835.46;585516;241;66440;-63
2023/06/27 06:39:36;;;;;;;;;;;;;;;22.99;79.26;96838.66;585997;241;68447;-61
2023/06/27 06:42:04;;;;;;;;;;;;;;;22.98;77.60;96842.43;584953;241;63838;-63
2023/06/27 06:44:32;;;;;;;;;;;;;;;22.98;78.58;96837.08;585747;241;68696;-63
2023/06/27 06:46:59;;;;;;;;;;;;;;;22.99;77.85;96833.30;586127;241;66638;-63
2023/06/27 06:49:27;;;;;;;;;;;;;;;22.99;77.21;96833.30;585519;241;62919;-61
2023/06/27 06:51:54;;;;;;;;;;;;;;;23.00;77.78;96840.27;584587;240;66626;-62
2023/06/27 06:54:21;;;;;;;;;;;;;;;22.99;77.37;96834.09;584599;241;68717;-61
2023/06/27 06:56:49;;;;;;;;;;;;;;;23.00;77.80;96840.27;588014;240;65091;-62
2023/06/27 06:59:17;;;;;;;;;;;;;;;23.00;77.09;96827.66;586807;240;68983;-61
2023/06/27 07:01:46;;;;;;;;;;;;;;;23.01;77.13;96833.81;588113;241;68532;-61
2023/06/27 07:04:13;;;;;;;;;;;;;;;23.00;76.99;96843.74;587153;240;65210;-62
2023/06/27 07:06:41;;;;;;;;;;;;;;;23.00;77.11;96841.06;587336;241;68837;-62
2023/06/27 07:09:08;;;;;;;;;;;;;;;23.01;77.48;96836.49;587288;241;68656;-61
2023/06/27 07:11:36;;;;;;;;;;;;;;;23.01;77.31;96836.49;587344;241;65036;-61
2023/06/27 07:14:03;;;;;;;;;;;;;;;23.01;77.71;96839.97;587273;241;68807;-61
2023/06/27 07:16:30;;;;;;;;;;;;;;;23.02;77.28;96830.03;587203;241;68518;-62
2023/06/27 07:18:58;;;;;;;;;;;;;;;23.02;77.74;96832.72;587243;241;64917;-61
2023/06/27 07:21:25;;;;;;;;;;;;;;;23.03;78.88;96834.33;587216;241;68814;-61
2023/06/27 07:23:53;;;;;;;;;;;;;;;23.02;77.35;96825.47;587038;241;69083;-61
2023/06/27 07:26:20;;;;;;;;;;;;;;;23.02;77.35;96833.51;587174;241;65122;-62
2023/06/27 07:28:48;;;;;;;;;;;;;;;23.02;75.69;96827.36;587254;241;68811;-63
2023/06/27 07:31:15;;;;;;;;;;;;;;;23.03;73.22;96828.97;587033;241;68730;-63
2023/06/27 07:33:43;;;;;;;;;;;;;;;23.05;74.56;96826.78;587182;241;65128;-62
2023/06/27 07:36:10;;;;;;;;;;;;;;;23.06;77.42;96823.03;587184;241;68831;-62
2023/06/27 07:38:38;;;;;;;;;;;;;;;23.04;77.30;96825.19;587072;241;68585;-62
2023/06/27 07:41:06;;;;;;;;;;;;;;;23.04;76.77;96819.83;587183;241;64885;-62
2023/06/27 07:43:33;;;;;;;;;;;;;;;23.05;77.58;96824.09;587199;241;66176;-62
2023/06/27 07:46:00;;;;;;;;;;;;;;;23.04;77.25;96825.19;587106;241;68708;-62
2023/06/27 07:48:28;;;;;;;;;;;;;;;23.05;78.15;96821.41;587204;241;62928;-62
2023/06/27 07:51:06;;;;;;;;;;;;;;;23.05;77.59;96826.78;587066;241;66838;-62
2023/06/27 07:53:43;;;;;;;;;;;;;;;23.05;77.96;96826.78;587082;240;48518;-62
2023/06/27 08:22:24;;;;;;;;;;;;;;;23.21;74.03;96819.33;574429;235;43441;-62
2023/06/27 08:24:51;;;;;;;;;;;;;;;23.24;75.21;96818.75;588708;241;63159;-62
2023/06/27 08:27:19;;;;;;;;;;;;;;;23.24;75.00;96819.56;581758;243;68914;-62
2023/06/27 08:29:46;;;;;;;;;;;;;;;23.22;74.18;96821.73;578440;243;68817;-62
2023/06/27 08:32:14;;;;;;;;;;;;;;;23.21;74.04;96809.39;585704;241;63116;-62
2023/06/27 08:34:41;;;;;;;;;;;;;;;23.20;74.45;96818.53;596074;238;66725;-63
2023/06/27 08:37:09;;;;;;;;;;;;;;;23.19;74.66;96821.49;585003;242;68502;-63
2023/06/27 08:39:37;;;;;;;;;;;;;;;23.17;74.25;96813.76;592317;239;62925;-63
2023/06/27 08:42:04;;;;;;;;;;;;;;;23.16;75.21;96812.17;585008;241;69639;-62
2023/06/27 08:44:32;;;;;;;;;;;;;;;23.14;74.84;96819.70;584997;241;69240;-62
2023/06/27 08:47:01;;;;;;;;;;;;;;;23.14;74.65;96819.70;586784;240;65091;-63
2023/06/27 08:49:30;;;;;;;;;;;;;;;23.14;74.44;96817.02;595309;236;68768;-62
2023/06/27 08:51:59;;;;;;;;;;;;;;;23.13;74.48;96811.94;591540;238;66439;-62
2023/06/27 08:54:32;;;;;;;;;;;;;;;23.14;74.57;96821.59;590820;238;65023;-63
2023/06/27 08:57:01;;;;;;;;;;;;;;;23.13;75.07;96819.98;595263;238;70254;-63
2023/06/27 08:59:30;;;;;;;;;;;;;;;23.12;74.66;96821.87;595345;237;68714;-64
2023/06/27 09:01:59;;;;;;;;;;;;;;;23.12;74.59;96816.50;595467;237;65231;-62
2023/06/27 09:04:27;;;;;;;;;;;;;;;23.12;74.60;96824.55;595466;238;66256;-62
2023/06/27 09:06:55;;;;;;;;;;;;;;;23.13;74.63;96819.98;595468;238;68785;-63
2023/06/27 09:09:23;;;;;;;;;;;;;;;23.12;74.62;96815.72;595452;235;65140;-62
2023/06/27 09:11:51;;;;;;;;;;;;;;;23.12;74.61;96813.83;595461;238;69134;-63
2023/06/27 09:14:19;;;;;;;;;;;;;;;23.12;74.70;96810.35;595528;238;68626;-63
2023/06/27 09:16:47;;;;;;;;;;;;;;;23.12;74.70;96815.72;595442;238;65071;-63
2023/06/27 09:19:14;;;;;;;;;;;;;;;23.12;74.69;96821.87;595496;238;68957;-65
2023/06/27 09:21:45;;;;;;;;;;;;;;;23.13;74.68;96814.62;594480;238;68722;-65
2023/06/27 09:24:16;;;;;;;;;;;;;;;23.12;74.78;96805.78;593429;239;65123;-64
2023/06/27 09:26:44;;;;;;;;;;;;;;;23.11;74.84;96812.24;593440;238;66469;-64
2023/06/27 09:29:12;;;;;;;;;;;;;;;23.12;74.79;96821.08;593528;239;68658;-62
2023/06/27 09:31:39;;;;;;;;;;;;;;;23.12;74.80;96816.50;593455;239;62907;-62
2023/06/27 09:34:09;;;;;;;;;;;;;;;23.12;74.78;96819.19;593342;239;66305;-62
2023/06/27 09:36:37;;;;;;;;;;;;;;;23.13;74.80;96817.30;593494;239;68409;-61
2023/06/27 09:39:05;;;;;;;;;;;;;;;23.12;74.89;96816.50;593438;239;62946;-62
2023/06/27 09:41:37;;;;;;;;;;;;;;;23.13;74.88;96826.12;593564;239;66658;-61
2023/06/27 09:44:05;;;;;;;;;;;;;;;23.12;74.85;96815.72;592287;239;66544;-62
2023/06/27 09:46:33;;;;;;;;;;;;;;;23.13;74.86;96819.98;593370;239;62826;-61
2023/06/27 09:49:00;;;;;;;;;;;;;;;23.13;74.87;96820.77;593478;237;66347;-61
2023/06/27 09:51:29;;;;;;;;;;;;;;;23.13;74.92;96823.45;593452;239;66357;-61
2023/06/27 09:53:56;;;;;;;;;;;;;;;23.13;74.97;96822.66;593411;239;62913;-61
2023/06/27 09:56:30;;;;;;;;;;;;;;;23.13;74.97;96820.77;593476;239;66567;-62
2023/06/27 09:59:11;;;;;;;;;;;;;;;23.13;74.99;96822.66;593372;239;67116;-61
2023/06/27 10:01:39;;;;;;;;;;;;;;;23.13;74.99;96826.12;593447;239;65195;-61
2023/06/27 10:04:07;;;;;;;;;;;;;;;23.13;74.99;96828.81;593467;239;68949;-61
2023/06/27 10:06:35;;;;;;;;;;;;;;;23.13;75.00;96822.66;593403;239;68756;-62
2023/06/27 10:09:03;;;;;;;;;;;;;;;23.14;75.06;96829.63;593492;239;65011;-61
2023/06/27 10:11:30;;;;;;;;;;;;;;;23.13;75.09;96826.12;580910;242;66589;-62
2023/06/27 10:13:58;;;;;;;;;;;;;;;23.13;75.02;96825.34;593970;238;66787;-62
2023/06/27 10:16:25;;;;;;;;;;;;;;;23.13;75.03;96828.02;593753;238;63020;-62
2023/06/27 10:18:55;;;;;;;;;;;;;;;23.14;74.29;96819.70;593233;239;66574;-62
2023/06/27 10:21:24;;;;;;;;;;;;;;;23.16;74.95;96819.39;592421;237;68775;-61
2023/06/27 10:23:53;;;;;;;;;;;;;;;23.15;74.88;96815.92;591676;238;65014;-62
2023/06/27 10:26:21;;;;;;;;;;;;;;;23.14;75.05;96817.02;591713;239;66661;-62
2023/06/27 10:28:49;;;;;;;;;;;;;;;23.14;75.05;96822.38;591688;239;66583;-62
2023/06/27 10:31:28;;;;;;;;;;;;;;;23.14;75.07;96817.02;591764;239;62951;-62
2023/06/27 10:33:55;;;;;;;;;;;;;;;23.14;75.07;96814.34;586389;237;68796;-62
2023/06/27 10:36:22;;;;;;;;;;;;;;;23.14;75.08;96814.34;591710;237;68497;-63
2023/06/27 10:38:51;;;;;;;;;;;;;;;23.15;74.95;96805.20;591703;237;65230;-62
2023/06/27 10:41:33;;;;;;;;;;;;;;;23.17;73.52;96807.61;591704;239;68782;-62
2023/06/27 10:43:54;;;;;;;;;;;;;;;23.16;73.99;96796.09;591357;236;68551;-62
2023/06/27 10:46:30;;;;;;;;;;;;;;;23.16;74.92;96801.45;589229;239;65102;-62
2023/06/27 10:49:02;;;;;;;;;;;;;;;23.16;75.05;96812.17;587473;239;68752;-61
2023/06/27 10:51:43;;;;;;;;;;;;;;;23.15;75.07;96805.20;585335;239;66605;-62
2023/06/27 10:54:15;;;;;;;;;;;;;;;23.15;74.96;96801.73;585296;240;65057;-62
2023/06/27 10:56:47;;;;;;;;;;;;;;;23.14;74.96;96806.30;583586;240;68857;-62
2023/06/27 10:59:21;;;;;;;;;;;;;;;23.14;74.98;96810.87;582200;241;66574;-64
2023/06/27 11:01:52;;;;;;;;;;;;;;;23.14;75.05;96803.62;582318;241;66653;-61
2023/06/27 11:04:27;;;;;;;;;;;;;;;23.14;75.05;96800.94;582152;242;68674;-61
2023/06/27 11:06:59;;;;;;;;;;;;;;;23.15;75.08;96804.41;582151;242;68526;-62
2023/06/27 11:09:29;;;;;;;;;;;;;;;23.14;75.15;96806.30;582199;242;63102;-61
2023/06/27 11:11:58;;;;;;;;;;;;;;;23.14;75.10;96797.47;582067;242;66588;-61
2023/06/27 11:14:36;;;;;;;;;;;;;;;23.13;75.09;96799.33;580546;242;69199;-61
2023/06/27 11:17:04;;;;;;;;;;;;;;;23.14;75.13;96792.89;581929;242;65105;-61
2023/06/27 11:19:33;;;;;;;;;;;;;;;23.15;75.12;96791.80;586260;237;68843;-61
2023/06/27 11:22:01;;;;;;;;;;;;;;;23.14;75.05;96784.86;586327;237;66706;-62
2023/06/27 11:24:32;;;;;;;;;;;;;;;23.15;75.06;96785.64;581384;243;65224;-62
2023/06/27 11:27:00;;;;;;;;;;;;;;;23.15;75.06;96789.12;581527;243;68823;-62
2023/06/27 11:29:28;;;;;;;;;;;;;;;23.15;75.11;96780.28;582168;243;66397;-61
2023/06/27 11:31:56;;;;;;;;;;;;;;;23.15;75.07;96786.44;582155;243;62778;-61
2023/06/27 11:34:23;;;;;;;;;;;;;;;23.15;75.12;96778.39;582142;242;66404;-61
2023/06/27 11:36:51;;;;;;;;;;;;;;;23.16;75.10;96777.33;581930;243;66621;-61
2023/06/27 11:39:18;;;;;;;;;;;;;;;23.16;75.08;96773.83;581992;243;62952;-61
2023/06/27 11:41:46;;;;;;;;;;;;;;;23.16;75.19;96776.50;582079;242;66578;-61
2023/06/27 11:44:15;;;;;;;;;;;;;;;23.16;75.21;96781.86;582019;243;68699;-61
2023/06/27 11:46:48;;;;;;;;;;;;;;;23.15;75.22;96775.71;581673;243;63073;-63
2023/06/27 11:49:16;;;;;;;;;;;;;;;23.16;75.20;96780.00;582125;242;66689;-62
2023/06/27 11:51:44;;;;;;;;;;;;;;;23.15;75.23;96775.71;582061;242;68539;-62
2023/06/27 11:54:11;;;;;;;;;;;;;;;23.16;75.28;96782.69;582092;242;62989;-62
2023/06/27 11:56:39;;;;;;;;;;;;;;;23.15;75.22;96778.39;582137;240;66612;-62
2023/06/27 11:59:06;;;;;;;;;;;;;;;23.15;75.21;96767.67;582152;243;66671;-62
2023/06/27 12:01:36;;;;;;;;;;;;;;;23.16;75.25;96763.10;582053;242;65315;-62
2023/06/27 12:04:05;;;;;;;;;;;;;;;23.16;75.22;96763.92;581473;243;68831;-62
2023/06/27 12:06:32;;;;;;;;;;;;;;;23.16;75.22;96766.61;581865;242;68742;-62
2023/06/27 12:09:00;;;;;;;;;;;;;;;23.16;75.21;96766.61;581962;242;65098;-63
2023/06/27 12:11:32;;;;;;;;;;;;;;;23.16;75.22;96766.61;582069;242;68975;-62
2023/06/27 12:13:58;;;;;;;;;;;;;;;23.18;73.19;96759.05;582036;243;68680;-63
2023/06/27 12:16:27;;;;;;;;;;;;;;;23.17;74.69;96760.14;582057;242;64696;-61
2023/06/27 12:19:09;;;;;;;;;;;;;;;23.17;75.02;96756.67;582135;243;68902;-63
2023/06/27 12:21:37;;;;;;;;;;;;;;;23.16;75.04;96750.52;581932;240;68306;-62
2023/06/27 12:24:05;;;;;;;;;;;;;;;23.17;75.04;96753.99;581442;243;65075;-62
2023/06/27 12:26:32;;;;;;;;;;;;;;;23.15;74.98;96751.59;581502;244;68961;-62
2023/06/27 12:29:00;;;;;;;;;;;;;;;23.16;74.93;96747.84;590555;238;69060;-62
2023/06/27 12:31:30;;;;;;;;;;;;;;;23.17;74.92;96753.99;594468;238;65114;-62
2023/06/27 12:33:59;;;;;;;;;;;;;;;23.16;74.93;96744.34;594589;238;68879;-62
2023/06/27 12:36:29;;;;;;;;;;;;;;;23.17;74.94;96745.95;594557;238;68591;-62
2023/06/27 12:38:56;;;;;;;;;;;;;;;23.15;74.89;96746.23;589502;238;65140;-62
2023/06/27 12:41:25;;;;;;;;;;;;;;;23.16;74.85;96742.48;588768;241;68901;-64
2023/06/27 12:43:53;;;;;;;;;;;;;;;23.16;74.84;96742.48;587793;241;68666;-61
2023/06/27 12:46:21;;;;;;;;;;;;;;;23.17;74.83;96744.06;588885;241;62938;-62
2023/06/27 12:48:48;;;;;;;;;;;;;;;23.17;74.88;96736.02;588839;241;66431;-62
2023/06/27 12:51:16;;;;;;;;;;;;;;;23.17;74.83;96744.06;588832;241;68589;-62
2023/06/27 12:53:44;;;;;;;;;;;;;;;23.16;74.77;96729.08;588830;241;62724;-62
2023/06/27 12:56:11;;;;;;;;;;;;;;;23.17;74.77;96729.86;588741;241;67032;-62
2023/06/27 12:58:39;;;;;;;;;;;;;;;23.17;74.74;96727.98;588796;241;68906;-62
2023/06/27 13:01:07;;;;;;;;;;;;;;;23.17;74.71;96722.61;588867;241;62927;-61
2023/06/27 13:03:35;;;;;;;;;;;;;;;23.16;74.71;96718.35;588885;241;68865;-61
2023/06/27 13:06:02;;;;;;;;;;;;;;;23.17;74.69;96722.61;588900;241;66619;-61
2023/06/27 13:08:30;;;;;;;;;;;;;;;23.17;74.63;96705.73;582076;241;64884;-61
2023/06/27 13:10:57;;;;;;;;;;;;;;;23.17;74.61;96708.42;587440;241;66447;-61
2023/06/27 13:13:26;;;;;;;;;;;;;;;23.17;74.60;96708.42;586657;241;67557;-61
2023/06/27 13:15:53;;;;;;;;;;;;;;;23.17;74.58;96711.10;586935;241;62457;-61
2023/06/27 13:18:21;;;;;;;;;;;;;;;23.17;74.57;96711.10;588453;241;68214;-61
2023/06/27 13:20:49;;;;;;;;;;;;;;;23.18;74.57;96718.05;588560;241;68700;-61